sensor_id;sensor_type;location;lat;lon;timestamp;P1;durP1;ratioP1;P2;durP2;ratioP2
51780;SDS011;37844;57.126;24.288;2022-12-07T00:01:41;28.90;;;16.40;;
51780;SDS011;37844;57.126;24.288;2022-12-07T00:04:13;30.95;;;16.27;;
51780;SDS011;37844;57.126;24.288;2022-12-07T00:06:41;27.35;;;16.48;;
51780;SDS011;37844;57.126;24.288;2022-12-07T00:09:13;22.02;;;14.73;;
51780;SDS011;37844;57.126;24.288;2022-12-07T00:11:40;23.90;;;15.70;;
51780;SDS011;37844;57.126;24.288;2022-12-07T00:14:07;30.40;;;14.80;;
51780;SDS011;37844;57.126;24.288;2022-12-07T00:16:35;24.85;;;16.05;;
51780;SDS011;37844;57.126;24.288;2022-12-07T00:19:01;25.00;;;15.25;;
51780;SDS011;37844;57.126;24.288;2022-12-07T00:21:27;23.10;;;13.60;;
51780;SDS011;37844;57.126;24.288;2022-12-07T00:23:56;25.02;;;15.13;;
51780;SDS011;37844;57.126;24.288;2022-12-07T00:26:26;21.73;;;14.35;;
51780;SDS011;37844;57.126;24.288;2022-12-07T00:28:54;24.10;;;14.65;;
51780;SDS011;37844;57.126;24.288;2022-12-07T00:31:25;20.80;;;13.52;;
51780;SDS011;37844;57.126;24.288;2022-12-07T00:33:52;24.30;;;14.32;;
51780;SDS011;37844;57.126;24.288;2022-12-07T00:36:19;21.50;;;14.52;;
51780;SDS011;37844;57.126;24.288;2022-12-07T00:38:46;22.38;;;14.85;;
51780;SDS011;37844;57.126;24.288;2022-12-07T00:41:14;21.75;;;13.82;;
51780;SDS011;37844;57.126;24.288;2022-12-07T00:43:41;24.13;;;14.13;;
51780;SDS011;37844;57.126;24.288;2022-12-07T00:46:08;19.92;;;12.80;;
51780;SDS011;37844;57.126;24.288;2022-12-07T00:48:34;20.50;;;13.05;;
51780;SDS011;37844;57.126;24.288;2022-12-07T00:51:00;19.67;;;13.48;;
51780;SDS011;37844;57.126;24.288;2022-12-07T00:53:27;26.05;;;14.43;;
51780;SDS011;37844;57.126;24.288;2022-12-07T00:55:52;26.85;;;15.27;;
51780;SDS011;37844;57.126;24.288;2022-12-07T00:58:18;23.67;;;15.10;;
51780;SDS011;37844;57.126;24.288;2022-12-07T01:00:44;25.52;;;15.77;;
51780;SDS011;37844;57.126;24.288;2022-12-07T01:03:17;20.92;;;12.77;;
51780;SDS011;37844;57.126;24.288;2022-12-07T01:05:52;23.48;;;14.00;;
51780;SDS011;37844;57.126;24.288;2022-12-07T01:08:19;22.35;;;13.93;;
51780;SDS011;37844;57.126;24.288;2022-12-07T01:10:46;22.50;;;13.95;;
51780;SDS011;37844;57.126;24.288;2022-12-07T01:13:12;20.65;;;14.30;;
51780;SDS011;37844;57.126;24.288;2022-12-07T01:15:41;21.70;;;14.00;;
51780;SDS011;37844;57.126;24.288;2022-12-07T01:18:14;22.38;;;12.68;;
51780;SDS011;37844;57.126;24.288;2022-12-07T01:20:40;21.95;;;12.90;;
51780;SDS011;37844;57.126;24.288;2022-12-07T01:23:05;22.58;;;14.52;;
51780;SDS011;37844;57.126;24.288;2022-12-07T01:25:31;26.35;;;14.30;;
51780;SDS011;37844;57.126;24.288;2022-12-07T01:27:57;23.02;;;14.07;;
51780;SDS011;37844;57.126;24.288;2022-12-07T01:30:22;20.75;;;13.20;;
51780;SDS011;37844;57.126;24.288;2022-12-07T01:32:48;19.77;;;13.55;;
51780;SDS011;37844;57.126;24.288;2022-12-07T01:35:13;20.50;;;13.75;;
51780;SDS011;37844;57.126;24.288;2022-12-07T01:37:39;23.85;;;11.90;;
51780;SDS011;37844;57.126;24.288;2022-12-07T01:40:05;18.00;;;11.68;;
51780;SDS011;37844;57.126;24.288;2022-12-07T01:42:32;20.15;;;13.90;;
51780;SDS011;37844;57.126;24.288;2022-12-07T01:47:43;16.60;;;10.98;;
51780;SDS011;37844;57.126;24.288;2022-12-07T01:50:11;17.70;;;11.73;;
51780;SDS011;37844;57.126;24.288;2022-12-07T01:52:36;23.73;;;13.90;;
51780;SDS011;37844;57.126;24.288;2022-12-07T01:55:06;19.77;;;13.38;;
51780;SDS011;37844;57.126;24.288;2022-12-07T01:57:36;22.55;;;14.52;;
51780;SDS011;37844;57.126;24.288;2022-12-07T02:00:05;17.00;;;11.73;;
51780;SDS011;37844;57.126;24.288;2022-12-07T02:03:07;20.52;;;13.40;;
51780;SDS011;37844;57.126;24.288;2022-12-07T02:05:29;20.90;;;11.57;;
51780;SDS011;37844;57.126;24.288;2022-12-07T02:07:56;18.65;;;12.55;;
51780;SDS011;37844;57.126;24.288;2022-12-07T02:10:27;20.50;;;12.48;;
51780;SDS011;37844;57.126;24.288;2022-12-07T02:12:55;18.42;;;12.95;;
51780;SDS011;37844;57.126;24.288;2022-12-07T02:15:25;16.27;;;11.52;;
51780;SDS011;37844;57.126;24.288;2022-12-07T02:18:07;16.38;;;11.40;;
51780;SDS011;37844;57.126;24.288;2022-12-07T02:31:26;20.00;;;11.60;;
51780;SDS011;37844;57.126;24.288;2022-12-07T02:34:06;19.83;;;11.82;;
51780;SDS011;37844;57.126;24.288;2022-12-07T02:36:42;19.33;;;13.00;;
51780;SDS011;37844;57.126;24.288;2022-12-07T02:39:15;19.40;;;12.43;;
51780;SDS011;37844;57.126;24.288;2022-12-07T02:41:49;17.88;;;11.57;;
51780;SDS011;37844;57.126;24.288;2022-12-07T02:44:23;21.48;;;13.30;;
51780;SDS011;37844;57.126;24.288;2022-12-07T02:46:57;19.52;;;11.77;;
51780;SDS011;37844;57.126;24.288;2022-12-07T02:49:26;24.40;;;12.88;;
51780;SDS011;37844;57.126;24.288;2022-12-07T02:51:53;17.13;;;10.35;;
51780;SDS011;37844;57.126;24.288;2022-12-07T02:54:19;16.92;;;11.23;;
51780;SDS011;37844;57.126;24.288;2022-12-07T03:18:55;14.88;;;10.10;;
51780;SDS011;37844;57.126;24.288;2022-12-07T03:21:25;20.45;;;11.20;;
51780;SDS011;37844;57.126;24.288;2022-12-07T03:23:56;16.10;;;10.38;;
51780;SDS011;37844;57.126;24.288;2022-12-07T03:26:24;15.82;;;10.70;;
51780;SDS011;37844;57.126;24.288;2022-12-07T03:28:58;16.27;;;9.95;;
51780;SDS011;37844;57.126;24.288;2022-12-07T03:31:29;16.10;;;9.88;;
51780;SDS011;37844;57.126;24.288;2022-12-07T03:36:54;13.27;;;9.18;;
51780;SDS011;37844;57.126;24.288;2022-12-07T03:39:36;14.65;;;9.68;;
51780;SDS011;37844;57.126;24.288;2022-12-07T03:42:12;13.15;;;9.77;;
51780;SDS011;37844;57.126;24.288;2022-12-07T03:44:38;16.50;;;9.70;;
51780;SDS011;37844;57.126;24.288;2022-12-07T03:47:05;13.43;;;9.75;;
51780;SDS011;37844;57.126;24.288;2022-12-07T03:49:52;18.25;;;8.98;;
51780;SDS011;37844;57.126;24.288;2022-12-07T03:53:08;13.57;;;8.85;;
51780;SDS011;37844;57.126;24.288;2022-12-07T03:55:22;19.23;;;9.05;;
51780;SDS011;37844;57.126;24.288;2022-12-07T03:57:54;14.55;;;9.20;;
51780;SDS011;37844;57.126;24.288;2022-12-07T04:02:51;14.65;;;9.70;;
51780;SDS011;37844;57.126;24.288;2022-12-07T04:05:17;14.00;;;9.20;;
51780;SDS011;37844;57.126;24.288;2022-12-07T04:07:42;11.07;;;8.20;;
51780;SDS011;37844;57.126;24.288;2022-12-07T04:10:08;12.00;;;8.85;;
51780;SDS011;37844;57.126;24.288;2022-12-07T04:12:34;16.77;;;9.23;;
51780;SDS011;37844;57.126;24.288;2022-12-07T04:15:00;15.02;;;9.40;;
51780;SDS011;37844;57.126;24.288;2022-12-07T04:17:25;12.20;;;7.43;;
51780;SDS011;37844;57.126;24.288;2022-12-07T04:19:50;16.52;;;9.45;;
51780;SDS011;37844;57.126;24.288;2022-12-07T04:22:16;11.88;;;7.85;;
51780;SDS011;37844;57.126;24.288;2022-12-07T04:24:41;12.10;;;7.93;;
51780;SDS011;37844;57.126;24.288;2022-12-07T04:27:07;11.65;;;8.35;;
51780;SDS011;37844;57.126;24.288;2022-12-07T04:29:32;12.65;;;8.68;;
51780;SDS011;37844;57.126;24.288;2022-12-07T04:31:58;13.40;;;9.15;;
51780;SDS011;37844;57.126;24.288;2022-12-07T04:34:23;13.77;;;9.05;;
51780;SDS011;37844;57.126;24.288;2022-12-07T04:36:49;15.77;;;9.48;;
51780;SDS011;37844;57.126;24.288;2022-12-07T04:39:24;13.55;;;8.20;;
51780;SDS011;37844;57.126;24.288;2022-12-07T04:41:53;12.75;;;8.75;;
51780;SDS011;37844;57.126;24.288;2022-12-07T04:44:18;13.68;;;9.13;;
51780;SDS011;37844;57.126;24.288;2022-12-07T04:46:45;10.63;;;7.95;;
51780;SDS011;37844;57.126;24.288;2022-12-07T04:49:11;14.95;;;9.40;;
51780;SDS011;37844;57.126;24.288;2022-12-07T04:51:37;13.43;;;8.73;;
51780;SDS011;37844;57.126;24.288;2022-12-07T04:54:03;14.15;;;8.98;;
51780;SDS011;37844;57.126;24.288;2022-12-07T04:56:29;13.23;;;8.48;;
51780;SDS011;37844;57.126;24.288;2022-12-07T04:58:55;15.80;;;9.48;;
51780;SDS011;37844;57.126;24.288;2022-12-07T05:01:21;15.90;;;8.10;;
51780;SDS011;37844;57.126;24.288;2022-12-07T05:03:46;12.00;;;7.32;;
51780;SDS011;37844;57.126;24.288;2022-12-07T05:06:12;15.90;;;8.70;;
51780;SDS011;37844;57.126;24.288;2022-12-07T05:08:39;14.45;;;8.18;;
51780;SDS011;37844;57.126;24.288;2022-12-07T05:11:05;15.35;;;7.85;;
51780;SDS011;37844;57.126;24.288;2022-12-07T05:13:32;12.35;;;7.68;;
51780;SDS011;37844;57.126;24.288;2022-12-07T05:15:58;18.42;;;9.77;;
51780;SDS011;37844;57.126;24.288;2022-12-07T05:18:24;11.73;;;8.30;;
51780;SDS011;37844;57.126;24.288;2022-12-07T05:20:49;12.90;;;7.97;;
51780;SDS011;37844;57.126;24.288;2022-12-07T05:23:16;11.60;;;7.97;;
51780;SDS011;37844;57.126;24.288;2022-12-07T05:25:42;16.38;;;9.80;;
51780;SDS011;37844;57.126;24.288;2022-12-07T05:28:08;13.77;;;8.48;;
51780;SDS011;37844;57.126;24.288;2022-12-07T05:30:33;16.40;;;10.50;;
51780;SDS011;37844;57.126;24.288;2022-12-07T05:32:59;14.50;;;9.82;;
51780;SDS011;37844;57.126;24.288;2022-12-07T05:35:24;13.40;;;9.32;;
51780;SDS011;37844;57.126;24.288;2022-12-07T05:37:50;14.70;;;9.27;;
51780;SDS011;37844;57.126;24.288;2022-12-07T05:40:16;14.75;;;8.52;;
51780;SDS011;37844;57.126;24.288;2022-12-07T05:42:42;15.95;;;9.45;;
51780;SDS011;37844;57.126;24.288;2022-12-07T05:45:08;16.40;;;9.38;;
51780;SDS011;37844;57.126;24.288;2022-12-07T05:47:34;14.80;;;10.15;;
51780;SDS011;37844;57.126;24.288;2022-12-07T05:50:01;14.68;;;9.05;;
51780;SDS011;37844;57.126;24.288;2022-12-07T05:52:26;15.63;;;10.40;;
51780;SDS011;37844;57.126;24.288;2022-12-07T05:54:52;16.35;;;8.80;;
51780;SDS011;37844;57.126;24.288;2022-12-07T05:57:17;14.60;;;9.07;;
51780;SDS011;37844;57.126;24.288;2022-12-07T05:59:43;14.32;;;9.10;;
51780;SDS011;37844;57.126;24.288;2022-12-07T06:02:10;15.10;;;9.63;;
51780;SDS011;37844;57.126;24.288;2022-12-07T06:04:38;18.67;;;9.93;;
51780;SDS011;37844;57.126;24.288;2022-12-07T06:07:05;15.60;;;10.20;;
51780;SDS011;37844;57.126;24.288;2022-12-07T06:09:32;16.13;;;9.88;;
51780;SDS011;37844;57.126;24.288;2022-12-07T06:11:58;15.55;;;10.15;;
51780;SDS011;37844;57.126;24.288;2022-12-07T06:14:43;13.50;;;9.30;;
51780;SDS011;37844;57.126;24.288;2022-12-07T06:17:09;17.38;;;10.15;;
51780;SDS011;37844;57.126;24.288;2022-12-07T06:19:35;15.60;;;9.10;;
51780;SDS011;37844;57.126;24.288;2022-12-07T06:22:01;15.77;;;9.27;;
51780;SDS011;37844;57.126;24.288;2022-12-07T06:24:27;15.52;;;10.57;;
51780;SDS011;37844;57.126;24.288;2022-12-07T06:26:53;12.77;;;8.85;;
51780;SDS011;37844;57.126;24.288;2022-12-07T06:29:19;14.13;;;8.55;;
51780;SDS011;37844;57.126;24.288;2022-12-07T06:31:45;15.60;;;9.70;;
51780;SDS011;37844;57.126;24.288;2022-12-07T06:34:14;16.73;;;10.52;;
51780;SDS011;37844;57.126;24.288;2022-12-07T06:36:41;15.50;;;10.52;;
51780;SDS011;37844;57.126;24.288;2022-12-07T06:39:08;19.80;;;11.70;;
51780;SDS011;37844;57.126;24.288;2022-12-07T06:41:37;16.10;;;9.68;;
51780;SDS011;37844;57.126;24.288;2022-12-07T06:44:06;15.65;;;10.90;;
51780;SDS011;37844;57.126;24.288;2022-12-07T06:46:32;17.48;;;11.60;;
51780;SDS011;37844;57.126;24.288;2022-12-07T06:49:00;20.50;;;11.85;;
51780;SDS011;37844;57.126;24.288;2022-12-07T06:51:25;19.20;;;10.90;;
51780;SDS011;37844;57.126;24.288;2022-12-07T06:53:51;20.63;;;10.68;;
51780;SDS011;37844;57.126;24.288;2022-12-07T06:56:16;16.45;;;10.85;;
51780;SDS011;37844;57.126;24.288;2022-12-07T06:58:42;19.48;;;11.10;;
51780;SDS011;37844;57.126;24.288;2022-12-07T07:01:17;17.20;;;10.63;;
51780;SDS011;37844;57.126;24.288;2022-12-07T07:03:43;20.05;;;10.77;;
51780;SDS011;37844;57.126;24.288;2022-12-07T07:06:10;16.63;;;10.38;;
51780;SDS011;37844;57.126;24.288;2022-12-07T07:08:37;15.90;;;10.50;;
51780;SDS011;37844;57.126;24.288;2022-12-07T07:11:03;17.80;;;12.00;;
51780;SDS011;37844;57.126;24.288;2022-12-07T07:13:29;19.20;;;11.13;;
51780;SDS011;37844;57.126;24.288;2022-12-07T07:15:55;18.65;;;11.82;;
51780;SDS011;37844;57.126;24.288;2022-12-07T07:18:21;19.30;;;11.52;;
51780;SDS011;37844;57.126;24.288;2022-12-07T07:20:47;23.17;;;12.27;;
51780;SDS011;37844;57.126;24.288;2022-12-07T07:23:12;20.90;;;11.13;;
51780;SDS011;37844;57.126;24.288;2022-12-07T07:25:38;18.40;;;10.60;;
51780;SDS011;37844;57.126;24.288;2022-12-07T07:28:03;21.17;;;12.32;;
51780;SDS011;37844;57.126;24.288;2022-12-07T07:30:29;25.42;;;12.15;;
51780;SDS011;37844;57.126;24.288;2022-12-07T07:32:56;17.50;;;10.77;;
51780;SDS011;37844;57.126;24.288;2022-12-07T07:35:23;20.17;;;12.93;;
51780;SDS011;37844;57.126;24.288;2022-12-07T07:37:49;18.33;;;11.40;;
51780;SDS011;37844;57.126;24.288;2022-12-07T07:40:15;16.90;;;11.93;;
51780;SDS011;37844;57.126;24.288;2022-12-07T07:42:40;15.82;;;10.65;;
51780;SDS011;37844;57.126;24.288;2022-12-07T07:45:06;18.30;;;12.02;;
51780;SDS011;37844;57.126;24.288;2022-12-07T07:47:31;16.15;;;10.50;;
51780;SDS011;37844;57.126;24.288;2022-12-07T07:49:57;16.65;;;10.80;;
51780;SDS011;37844;57.126;24.288;2022-12-07T07:52:22;24.30;;;11.75;;
51780;SDS011;37844;57.126;24.288;2022-12-07T07:54:48;14.93;;;10.45;;
51780;SDS011;37844;57.126;24.288;2022-12-07T07:57:13;20.90;;;11.63;;
51780;SDS011;37844;57.126;24.288;2022-12-07T07:59:39;20.85;;;10.05;;
51780;SDS011;37844;57.126;24.288;2022-12-07T08:02:04;23.02;;;12.05;;
51780;SDS011;37844;57.126;24.288;2022-12-07T08:04:30;19.55;;;11.88;;
51780;SDS011;37844;57.126;24.288;2022-12-07T08:06:56;21.23;;;11.02;;
51780;SDS011;37844;57.126;24.288;2022-12-07T08:09:22;19.83;;;11.93;;
51780;SDS011;37844;57.126;24.288;2022-12-07T08:11:47;20.10;;;10.95;;
51780;SDS011;37844;57.126;24.288;2022-12-07T08:14:12;16.13;;;11.00;;
51780;SDS011;37844;57.126;24.288;2022-12-07T08:16:38;20.40;;;12.20;;
51780;SDS011;37844;57.126;24.288;2022-12-07T08:19:06;17.50;;;10.88;;
51780;SDS011;37844;57.126;24.288;2022-12-07T08:21:32;18.67;;;12.35;;
51780;SDS011;37844;57.126;24.288;2022-12-07T08:23:58;19.15;;;11.57;;
51780;SDS011;37844;57.126;24.288;2022-12-07T08:26:24;16.52;;;10.93;;
51780;SDS011;37844;57.126;24.288;2022-12-07T08:28:49;16.70;;;10.75;;
51780;SDS011;37844;57.126;24.288;2022-12-07T08:31:16;17.10;;;11.77;;
51780;SDS011;37844;57.126;24.288;2022-12-07T08:33:44;18.67;;;11.48;;
51780;SDS011;37844;57.126;24.288;2022-12-07T08:36:12;16.20;;;10.93;;
51780;SDS011;37844;57.126;24.288;2022-12-07T08:38:39;18.38;;;11.93;;
51780;SDS011;37844;57.126;24.288;2022-12-07T08:41:06;20.65;;;13.60;;
51780;SDS011;37844;57.126;24.288;2022-12-07T08:43:32;21.92;;;12.48;;
51780;SDS011;37844;57.126;24.288;2022-12-07T08:51:09;19.47;;;10.67;;
51780;SDS011;37844;57.126;24.288;2022-12-07T08:53:35;16.90;;;10.13;;
51780;SDS011;37844;57.126;24.288;2022-12-07T08:56:03;19.45;;;11.52;;
51780;SDS011;37844;57.126;24.288;2022-12-07T08:58:30;18.48;;;11.65;;
51780;SDS011;37844;57.126;24.288;2022-12-07T09:00:55;24.27;;;13.93;;
51780;SDS011;37844;57.126;24.288;2022-12-07T09:03:21;17.60;;;11.00;;
51780;SDS011;37844;57.126;24.288;2022-12-07T09:05:46;16.60;;;10.80;;
51780;SDS011;37844;57.126;24.288;2022-12-07T09:08:12;18.98;;;12.15;;
51780;SDS011;37844;57.126;24.288;2022-12-07T09:10:38;24.30;;;12.40;;
51780;SDS011;37844;57.126;24.288;2022-12-07T09:13:03;20.23;;;12.20;;
51780;SDS011;37844;57.126;24.288;2022-12-07T09:15:29;18.83;;;11.50;;
51780;SDS011;37844;57.126;24.288;2022-12-07T09:17:55;18.63;;;10.18;;
51780;SDS011;37844;57.126;24.288;2022-12-07T09:20:21;19.52;;;12.15;;
51780;SDS011;37844;57.126;24.288;2022-12-07T09:22:47;18.23;;;10.88;;
51780;SDS011;37844;57.126;24.288;2022-12-07T09:25:12;15.77;;;10.85;;
51780;SDS011;37844;57.126;24.288;2022-12-07T09:27:38;17.83;;;11.50;;
51780;SDS011;37844;57.126;24.288;2022-12-07T09:30:04;20.35;;;11.65;;
51780;SDS011;37844;57.126;24.288;2022-12-07T09:32:30;18.55;;;11.35;;
51780;SDS011;37844;57.126;24.288;2022-12-07T09:34:56;21.25;;;12.50;;
51780;SDS011;37844;57.126;24.288;2022-12-07T09:37:21;16.42;;;11.00;;
51780;SDS011;37844;57.126;24.288;2022-12-07T09:39:47;19.80;;;13.55;;
51780;SDS011;37844;57.126;24.288;2022-12-07T09:42:34;17.20;;;11.13;;
51780;SDS011;37844;57.126;24.288;2022-12-07T09:45:00;15.57;;;10.10;;
51780;SDS011;37844;57.126;24.288;2022-12-07T09:47:27;22.23;;;11.98;;
51780;SDS011;37844;57.126;24.288;2022-12-07T09:49:55;19.75;;;11.90;;
51780;SDS011;37844;57.126;24.288;2022-12-07T09:52:27;19.38;;;12.52;;
51780;SDS011;37844;57.126;24.288;2022-12-07T09:54:54;17.05;;;11.20;;
51780;SDS011;37844;57.126;24.288;2022-12-07T09:57:29;18.00;;;11.07;;
51780;SDS011;37844;57.126;24.288;2022-12-07T10:00:00;16.45;;;10.95;;
51780;SDS011;37844;57.126;24.288;2022-12-07T10:02:37;16.70;;;10.90;;
51780;SDS011;37844;57.126;24.288;2022-12-07T10:05:13;16.67;;;10.93;;
51780;SDS011;37844;57.126;24.288;2022-12-07T10:07:40;18.27;;;10.73;;
51780;SDS011;37844;57.126;24.288;2022-12-07T10:10:06;16.77;;;10.63;;
51780;SDS011;37844;57.126;24.288;2022-12-07T10:12:52;17.25;;;10.52;;
51780;SDS011;37844;57.126;24.288;2022-12-07T10:18:27;16.48;;;10.15;;
51780;SDS011;37844;57.126;24.288;2022-12-07T10:21:19;15.18;;;9.65;;
51780;SDS011;37844;57.126;24.288;2022-12-07T10:24:02;16.88;;;10.30;;
51780;SDS011;37844;57.126;24.288;2022-12-07T10:31:38;17.60;;;11.23;;
51780;SDS011;37844;57.126;24.288;2022-12-07T10:34:12;20.25;;;11.13;;
51780;SDS011;37844;57.126;24.288;2022-12-07T10:36:49;17.00;;;10.30;;
51780;SDS011;37844;57.126;24.288;2022-12-07T10:39:15;18.23;;;10.18;;
51780;SDS011;37844;57.126;24.288;2022-12-07T10:41:52;16.25;;;10.60;;
51780;SDS011;37844;57.126;24.288;2022-12-07T10:44:23;17.42;;;10.93;;
51780;SDS011;37844;57.126;24.288;2022-12-07T10:49:40;14.95;;;9.90;;
51780;SDS011;37844;57.126;24.288;2022-12-07T10:55:19;15.52;;;9.50;;
51780;SDS011;37844;57.126;24.288;2022-12-07T10:58:01;26.85;;;11.15;;
51780;SDS011;37844;57.126;24.288;2022-12-07T11:00:43;14.60;;;9.27;;
51780;SDS011;37844;57.126;24.288;2022-12-07T11:12:18;15.48;;;10.20;;
51780;SDS011;37844;57.126;24.288;2022-12-07T11:14:51;16.70;;;9.63;;
51780;SDS011;37844;57.126;24.288;2022-12-07T11:29:09;19.25;;;11.20;;
51780;SDS011;37844;57.126;24.288;2022-12-07T11:34:31;14.40;;;10.23;;
51780;SDS011;37844;57.126;24.288;2022-12-07T11:37:31;14.48;;;9.95;;
51780;SDS011;37844;57.126;24.288;2022-12-07T11:40:01;15.43;;;9.45;;
51780;SDS011;37844;57.126;24.288;2022-12-07T11:42:55;18.67;;;9.93;;
51780;SDS011;37844;57.126;24.288;2022-12-07T11:45:33;14.30;;;8.55;;
51780;SDS011;37844;57.126;24.288;2022-12-07T11:48:01;14.65;;;9.98;;
51780;SDS011;37844;57.126;24.288;2022-12-07T11:50:33;20.17;;;11.05;;
51780;SDS011;37844;57.126;24.288;2022-12-07T11:55:50;19.95;;;10.70;;
51780;SDS011;37844;57.126;24.288;2022-12-07T11:58:45;14.63;;;9.90;;
51780;SDS011;37844;57.126;24.288;2022-12-07T12:06:30;18.38;;;9.88;;
51780;SDS011;37844;57.126;24.288;2022-12-07T12:27:50;17.75;;;10.05;;
51780;SDS011;37844;57.126;24.288;2022-12-07T12:30:29;18.45;;;10.98;;
51780;SDS011;37844;57.126;24.288;2022-12-07T12:33:01;14.38;;;9.95;;
51780;SDS011;37844;57.126;24.288;2022-12-07T12:35:34;15.85;;;10.18;;
51780;SDS011;37844;57.126;24.288;2022-12-07T12:40:49;17.23;;;10.02;;
51780;SDS011;37844;57.126;24.288;2022-12-07T12:48:55;17.55;;;10.85;;
51780;SDS011;37844;57.126;24.288;2022-12-07T12:51:39;14.90;;;10.10;;
51780;SDS011;37844;57.126;24.288;2022-12-07T12:54:54;16.85;;;10.73;;
51780;SDS011;37844;57.126;24.288;2022-12-07T13:15:34;15.77;;;10.02;;
51780;SDS011;37844;57.126;24.288;2022-12-07T13:18:48;22.77;;;10.68;;
51780;SDS011;37844;57.126;24.288;2022-12-07T13:26:21;16.67;;;11.05;;
51780;SDS011;37844;57.126;24.288;2022-12-07T13:28:52;16.98;;;10.02;;
51780;SDS011;37844;57.126;24.288;2022-12-07T13:34:34;18.83;;;10.90;;
51780;SDS011;37844;57.126;24.288;2022-12-07T13:37:23;21.38;;;10.52;;
51780;SDS011;37844;57.126;24.288;2022-12-07T13:39:52;16.33;;;10.70;;
51780;SDS011;37844;57.126;24.288;2022-12-07T13:42:31;20.65;;;10.90;;
51780;SDS011;37844;57.126;24.288;2022-12-07T13:45:00;16.25;;;10.63;;
51780;SDS011;37844;57.126;24.288;2022-12-07T13:47:54;16.58;;;10.63;;
51780;SDS011;37844;57.126;24.288;2022-12-07T13:50:25;16.48;;;10.80;;
51780;SDS011;37844;57.126;24.288;2022-12-07T13:55:20;21.02;;;11.95;;
51780;SDS011;37844;57.126;24.288;2022-12-07T13:57:47;25.20;;;12.52;;
51780;SDS011;37844;57.126;24.288;2022-12-07T14:00:16;18.60;;;11.63;;
51780;SDS011;37844;57.126;24.288;2022-12-07T14:05:27;17.00;;;10.38;;
51780;SDS011;37844;57.126;24.288;2022-12-07T14:10:25;19.20;;;12.90;;
51780;SDS011;37844;57.126;24.288;2022-12-07T14:12:56;16.63;;;9.90;;
51780;SDS011;37844;57.126;24.288;2022-12-07T14:15:29;15.70;;;10.57;;
51780;SDS011;37844;57.126;24.288;2022-12-07T14:17:57;17.27;;;10.75;;
51780;SDS011;37844;57.126;24.288;2022-12-07T14:20:35;19.05;;;11.15;;
51780;SDS011;37844;57.126;24.288;2022-12-07T14:23:01;20.38;;;12.10;;
51780;SDS011;37844;57.126;24.288;2022-12-07T14:25:44;18.20;;;11.02;;
51780;SDS011;37844;57.126;24.288;2022-12-07T14:28:24;18.67;;;12.20;;
51780;SDS011;37844;57.126;24.288;2022-12-07T14:30:52;21.45;;;12.80;;
51780;SDS011;37844;57.126;24.288;2022-12-07T14:33:17;19.35;;;12.15;;
51780;SDS011;37844;57.126;24.288;2022-12-07T14:35:44;19.08;;;13.07;;
51780;SDS011;37844;57.126;24.288;2022-12-07T14:38:09;16.83;;;11.48;;
51780;SDS011;37844;57.126;24.288;2022-12-07T14:40:34;21.00;;;12.38;;
51780;SDS011;37844;57.126;24.288;2022-12-07T14:43:01;19.13;;;12.10;;
51780;SDS011;37844;57.126;24.288;2022-12-07T14:45:29;21.30;;;12.30;;
51780;SDS011;37844;57.126;24.288;2022-12-07T14:47:55;18.38;;;12.23;;
51780;SDS011;37844;57.126;24.288;2022-12-07T14:50:20;19.48;;;12.30;;
51780;SDS011;37844;57.126;24.288;2022-12-07T14:52:48;22.90;;;12.38;;
51780;SDS011;37844;57.126;24.288;2022-12-07T14:55:26;17.65;;;11.48;;
51780;SDS011;37844;57.126;24.288;2022-12-07T14:57:53;17.98;;;12.13;;
51780;SDS011;37844;57.126;24.288;2022-12-07T15:00:20;19.77;;;11.02;;
51780;SDS011;37844;57.126;24.288;2022-12-07T15:02:47;19.65;;;13.40;;
51780;SDS011;37844;57.126;24.288;2022-12-07T15:05:14;22.75;;;12.90;;
51780;SDS011;37844;57.126;24.288;2022-12-07T15:07:39;19.38;;;12.85;;
51780;SDS011;37844;57.126;24.288;2022-12-07T15:10:06;22.02;;;12.60;;
51780;SDS011;37844;57.126;24.288;2022-12-07T15:12:38;23.23;;;13.82;;
51780;SDS011;37844;57.126;24.288;2022-12-07T15:15:03;17.70;;;11.05;;
51780;SDS011;37844;57.126;24.288;2022-12-07T15:17:29;18.40;;;12.30;;
51780;SDS011;37844;57.126;24.288;2022-12-07T15:19:54;17.27;;;10.93;;
51780;SDS011;37844;57.126;24.288;2022-12-07T15:22:20;18.90;;;11.73;;
51780;SDS011;37844;57.126;24.288;2022-12-07T15:24:45;18.75;;;12.07;;
51780;SDS011;37844;57.126;24.288;2022-12-07T15:27:11;21.13;;;13.32;;
51780;SDS011;37844;57.126;24.288;2022-12-07T15:29:36;18.83;;;12.63;;
51780;SDS011;37844;57.126;24.288;2022-12-07T15:32:02;20.58;;;12.30;;
51780;SDS011;37844;57.126;24.288;2022-12-07T15:34:27;21.45;;;12.00;;
51780;SDS011;37844;57.126;24.288;2022-12-07T15:36:53;22.48;;;13.23;;
51780;SDS011;37844;57.126;24.288;2022-12-07T15:39:19;22.20;;;13.75;;
51780;SDS011;37844;57.126;24.288;2022-12-07T15:41:44;18.95;;;12.77;;
51780;SDS011;37844;57.126;24.288;2022-12-07T15:44:13;19.20;;;12.50;;
51780;SDS011;37844;57.126;24.288;2022-12-07T15:46:58;18.42;;;11.77;;
51780;SDS011;37844;57.126;24.288;2022-12-07T15:49:24;20.52;;;13.35;;
51780;SDS011;37844;57.126;24.288;2022-12-07T15:51:51;19.38;;;11.93;;
51780;SDS011;37844;57.126;24.288;2022-12-07T15:54:21;21.67;;;13.27;;
51780;SDS011;37844;57.126;24.288;2022-12-07T15:56:48;17.65;;;11.65;;
51780;SDS011;37844;57.126;24.288;2022-12-07T15:59:14;18.60;;;12.68;;
51780;SDS011;37844;57.126;24.288;2022-12-07T16:01:40;20.42;;;12.18;;
51780;SDS011;37844;57.126;24.288;2022-12-07T16:04:05;21.38;;;12.55;;
51780;SDS011;37844;57.126;24.288;2022-12-07T16:06:31;20.25;;;13.93;;
51780;SDS011;37844;57.126;24.288;2022-12-07T16:08:57;19.23;;;12.65;;
51780;SDS011;37844;57.126;24.288;2022-12-07T16:11:22;22.13;;;13.60;;
51780;SDS011;37844;57.126;24.288;2022-12-07T16:13:48;19.13;;;12.77;;
51780;SDS011;37844;57.126;24.288;2022-12-07T16:16:15;19.88;;;12.70;;
51780;SDS011;37844;57.126;24.288;2022-12-07T16:18:43;21.27;;;13.18;;
51780;SDS011;37844;57.126;24.288;2022-12-07T16:21:09;19.20;;;12.88;;
51780;SDS011;37844;57.126;24.288;2022-12-07T16:23:35;18.92;;;11.95;;
51780;SDS011;37844;57.126;24.288;2022-12-07T16:26:08;22.17;;;12.75;;
51780;SDS011;37844;57.126;24.288;2022-12-07T16:28:36;23.48;;;13.20;;
51780;SDS011;37844;57.126;24.288;2022-12-07T16:31:02;19.52;;;13.32;;
51780;SDS011;37844;57.126;24.288;2022-12-07T16:33:33;23.38;;;13.50;;
51780;SDS011;37844;57.126;24.288;2022-12-07T16:36:00;21.83;;;13.25;;
51780;SDS011;37844;57.126;24.288;2022-12-07T16:38:26;19.38;;;13.05;;
51780;SDS011;37844;57.126;24.288;2022-12-07T16:40:52;19.30;;;13.30;;
51780;SDS011;37844;57.126;24.288;2022-12-07T16:43:18;17.00;;;11.80;;
51780;SDS011;37844;57.126;24.288;2022-12-07T16:45:44;21.65;;;13.20;;
51780;SDS011;37844;57.126;24.288;2022-12-07T16:48:10;18.83;;;13.05;;
51780;SDS011;37844;57.126;24.288;2022-12-07T16:50:38;17.67;;;11.63;;
51780;SDS011;37844;57.126;24.288;2022-12-07T16:53:06;22.77;;;14.15;;
51780;SDS011;37844;57.126;24.288;2022-12-07T16:55:35;20.23;;;12.35;;